Time;durP1;ratioP1;P1;durP2;ratioP2;P2;SDS_P1;SDS_P2;PMS_P1;PMS_P2;Temp;Humidity;BMP_temperature;BMP_pressure;BME280_temperature;BME280_humidity;BME280_pressure;Samples;Min_cycle;Max_cycle;Signal;HPM_P1;HPM_P2
2023/08/24 00:01:02;;;;;;;1.40;1.40;;;;;;;;;;4186106;28;20075;-59
2023/08/24 00:03:22;;;;;;;1.77;1.77;;;;;;;;;;4188324;28;20355;-59
2023/08/24 00:05:43;;;;;;;2.97;1.50;;;;;;;;;;4185521;28;20242;-59
2023/08/24 00:08:12;;;;;;;2.08;1.40;;;;;;;;;;4187831;28;20067;-59
2023/08/24 00:10:32;;;;;;;1.88;1.75;;;;;;;;;;4187515;28;20196;-59
2023/08/24 00:12:52;;;;;;;2.25;2.15;;;;;;;;;;4182788;28;20101;-59
2023/08/24 00:15:13;;;;;;;1.75;1.60;;;;;;;;;;4184175;28;20075;-59
2023/08/24 00:17:33;;;;;;;2.40;2.30;;;;;;;;;;4188812;28;20052;-59
2023/08/24 00:19:53;;;;;;;2.33;1.60;;;;;;;;;;4182441;28;20052;-59
2023/08/24 00:22:13;;;;;;;2.60;1.42;;;;;;;;;;4184298;28;20048;-59
2023/08/24 00:24:33;;;;;;;1.50;1.50;;;;;;;;;;4186000;28;20047;-59
2023/08/24 00:26:53;;;;;;;1.48;1.38;;;;;;;;;;4187293;28;20401;-59
2023/08/24 00:29:13;;;;;;;1.42;1.40;;;;;;;;;;4188151;28;20363;-59
2023/08/24 00:31:33;;;;;;;2.40;2.25;;;;;;;;;;4184531;28;20112;-59
2023/08/24 00:33:54;;;;;;;1.80;1.65;;;;;;;;;;4181133;28;20244;-59
2023/08/24 00:36:15;;;;;;;1.63;1.60;;;;;;;;;;4182568;28;20075;-59
2023/08/24 00:38:35;;;;;;;2.13;2.13;;;;;;;;;;4183382;28;20044;-59
2023/08/24 00:40:56;;;;;;;2.40;2.25;;;;;;;;;;4186948;28;20086;-59
2023/08/24 00:43:16;;;;;;;2.47;2.38;;;;;;;;;;4183057;28;20395;-59
2023/08/24 00:45:37;;;;;;;2.42;2.17;;;;;;;;;;4184083;28;20048;-59
2023/08/24 00:47:57;;;;;;;2.45;2.35;;;;;;;;;;4185783;28;20048;-59
2023/08/24 00:50:18;;;;;;;3.50;3.25;;;;;;;;;;4186973;28;20451;-59
2023/08/24 00:52:39;;;;;;;1.95;1.85;;;;;;;;;;4187888;28;20044;-59
2023/08/24 00:55:00;;;;;;;2.13;2.03;;;;;;;;;;4188228;28;20083;-59
2023/08/24 00:57:20;;;;;;;2.47;2.28;;;;;;;;;;4187304;28;20083;-59
2023/08/24 00:59:40;;;;;;;2.25;2.15;;;;;;;;;;4189636;28;20094;-59
2023/08/24 01:02:01;;;;;;;1.77;1.77;;;;;;;;;;4190011;28;20074;-55
2023/08/24 01:04:21;;;;;;;2.15;2.15;;;;;;;;;;4227158;22;20250;-59
2023/08/24 01:06:41;;;;;;;2.40;2.38;;;;;;;;;;4219251;28;20050;-59
2023/08/24 01:09:01;;;;;;;7.90;1.77;;;;;;;;;;4208502;28;20055;-59
2023/08/24 01:11:25;;;;;;;2.35;2.25;;;;;;;;;;4223530;28;20055;-59
2023/08/24 01:13:59;;;;;;;2.17;2.00;;;;;;;;;;4222482;28;20047;-59
2023/08/24 01:16:21;;;;;;;2.28;1.90;;;;;;;;;;4222050;28;20066;-59
2023/08/24 01:18:42;;;;;;;2.85;2.08;;;;;;;;;;4223126;28;20059;-58
2023/08/24 01:21:03;;;;;;;2.53;2.42;;;;;;;;;;4223604;28;20117;-59
2023/08/24 01:23:23;;;;;;;2.50;2.40;;;;;;;;;;4221710;28;20066;-59
2023/08/24 01:25:54;;;;;;;2.13;2.13;;;;;;;;;;4221435;28;20039;-60
2023/08/24 01:28:15;;;;;;;2.15;2.10;;;;;;;;;;4219781;28;20051;-59
2023/08/24 01:30:35;;;;;;;2.03;1.95;;;;;;;;;;4221767;28;20081;-59
2023/08/24 01:32:56;;;;;;;2.55;2.45;;;;;;;;;;4220292;28;20054;-59
2023/08/24 01:35:16;;;;;;;2.75;2.65;;;;;;;;;;4222981;28;20043;-59
2023/08/24 01:37:37;;;;;;;2.22;2.13;;;;;;;;;;4223894;28;20077;-59
2023/08/24 01:40:13;;;;;;;2.75;2.65;;;;;;;;;;4222687;28;20046;-59
2023/08/24 01:42:36;;;;;;;2.55;2.35;;;;;;;;;;4206860;28;20062;-58
2023/08/24 01:44:58;;;;;;;2.58;2.50;;;;;;;;;;4207359;28;20067;-59
2023/08/24 01:47:19;;;;;;;2.40;2.30;;;;;;;;;;4207179;28;20056;-59
2023/08/24 01:49:41;;;;;;;2.38;2.17;;;;;;;;;;4203682;28;20040;-59
2023/08/24 01:52:02;;;;;;;2.55;2.53;;;;;;;;;;4202360;28;20082;-59
2023/08/24 01:54:23;;;;;;;2.80;2.75;;;;;;;;;;4203928;28;20052;-59
2023/08/24 01:56:43;;;;;;;2.83;2.72;;;;;;;;;;4199261;28;20044;-59
2023/08/24 01:59:03;;;;;;;3.17;2.97;;;;;;;;;;4203451;28;20266;-59
2023/08/24 02:01:24;;;;;;;2.95;2.85;;;;;;;;;;4203179;28;20062;-59
2023/08/24 02:03:44;;;;;;;2.83;2.63;;;;;;;;;;4201784;28;20047;-59
2023/08/24 02:06:06;;;;;;;3.13;3.00;;;;;;;;;;4201588;28;20094;-59
2023/08/24 02:08:27;;;;;;;2.38;2.30;;;;;;;;;;4200259;28;20361;-59
2023/08/24 02:10:47;;;;;;;2.60;2.50;;;;;;;;;;4204204;28;20082;-59
2023/08/24 02:13:07;;;;;;;3.13;2.83;;;;;;;;;;4200708;28;20048;-59
2023/08/24 02:15:27;;;;;;;2.42;2.28;;;;;;;;;;4197481;28;20051;-58
2023/08/24 02:17:47;;;;;;;2.65;2.55;;;;;;;;;;4205004;28;20096;-58
2023/08/24 02:20:08;;;;;;;3.60;2.83;;;;;;;;;;4200508;28;20078;-58
2023/08/24 02:22:29;;;;;;;2.33;2.22;;;;;;;;;;4205320;28;20357;-59
2023/08/24 02:24:49;;;;;;;2.33;2.22;;;;;;;;;;4206855;28;20047;-58
2023/08/24 02:27:10;;;;;;;3.10;3.00;;;;;;;;;;4205408;28;20044;-59
2023/08/24 02:29:30;;;;;;;3.40;3.20;;;;;;;;;;4206168;28;20055;-60
2023/08/24 02:31:51;;;;;;;2.78;2.78;;;;;;;;;;4202612;28;20366;-59
2023/08/24 02:34:12;;;;;;;2.63;2.53;;;;;;;;;;4203922;28;20266;-59
2023/08/24 02:36:33;;;;;;;2.70;2.70;;;;;;;;;;4206538;28;20077;-59
2023/08/24 02:38:53;;;;;;;3.60;3.40;;;;;;;;;;4203880;28;20079;-59
2023/08/24 02:41:14;;;;;;;2.60;2.40;;;;;;;;;;4204049;28;20139;-59
2023/08/24 02:43:34;;;;;;;3.30;3.20;;;;;;;;;;4202248;28;20051;-58
2023/08/24 02:45:54;;;;;;;3.42;3.28;;;;;;;;;;4202786;28;20322;-59
2023/08/24 02:48:15;;;;;;;2.72;2.63;;;;;;;;;;4204874;28;20044;-59
2023/08/24 02:50:35;;;;;;;2.30;2.25;;;;;;;;;;4202902;28;20109;-59
2023/08/24 02:52:57;;;;;;;3.72;3.53;;;;;;;;;;4201800;28;20048;-59
2023/08/24 02:55:18;;;;;;;5.63;2.30;;;;;;;;;;4204629;28;20089;-59
2023/08/24 02:57:38;;;;;;;2.88;2.67;;;;;;;;;;4202834;28;20358;-59
2023/08/24 02:59:58;;;;;;;2.78;2.67;;;;;;;;;;4204067;28;20047;-59
2023/08/24 03:02:19;;;;;;;2.50;2.40;;;;;;;;;;4205326;28;20047;-58
2023/08/24 03:04:39;;;;;;;2.28;2.17;;;;;;;;;;4203925;28;20112;-59
2023/08/24 03:06:59;;;;;;;2.70;2.50;;;;;;;;;;4203119;28;20104;-58
2023/08/24 03:09:19;;;;;;;2.90;2.70;;;;;;;;;;4200219;28;20089;-59
2023/08/24 03:11:39;;;;;;;3.63;3.42;;;;;;;;;;4201883;28;20079;-58
2023/08/24 03:14:00;;;;;;;4.10;2.67;;;;;;;;;;4201633;28;20366;-58
2023/08/24 03:16:20;;;;;;;3.55;3.42;;;;;;;;;;4198724;28;20112;-58
2023/08/24 03:18:40;;;;;;;3.83;3.65;;;;;;;;;;4204586;28;20066;-59
2023/08/24 03:21:01;;;;;;;2.67;2.67;;;;;;;;;;4200337;28;20060;-59
2023/08/24 03:23:21;;;;;;;3.03;2.85;;;;;;;;;;4203797;28;20047;-58
2023/08/24 03:25:43;;;;;;;3.28;2.28;;;;;;;;;;4204751;28;20227;-58
2023/08/24 03:28:03;;;;;;;2.95;2.85;;;;;;;;;;4205062;28;20078;-58
2023/08/24 03:30:24;;;;;;;2.38;2.17;;;;;;;;;;4200650;28;20048;-58
2023/08/24 03:32:44;;;;;;;2.50;2.33;;;;;;;;;;4199419;28;20051;-59
2023/08/24 03:35:05;;;;;;;2.45;2.35;;;;;;;;;;4203054;28;20091;-58
2023/08/24 03:37:26;;;;;;;3.40;3.30;;;;;;;;;;4200861;28;20044;-58
2023/08/24 03:39:46;;;;;;;2.65;2.40;;;;;;;;;;4200301;28;20065;-58
2023/08/24 03:42:06;;;;;;;2.22;2.03;;;;;;;;;;4201269;28;20035;-58
2023/08/24 03:44:27;;;;;;;2.72;2.53;;;;;;;;;;4204607;28;20051;-59
2023/08/24 03:46:47;;;;;;;4.72;2.28;;;;;;;;;;4202314;28;20116;-58
2023/08/24 03:49:08;;;;;;;3.88;2.30;;;;;;;;;;4203485;28;20075;-59
2023/08/24 03:51:28;;;;;;;2.88;2.80;;;;;;;;;;4204520;28;20082;-59
2023/08/24 03:53:48;;;;;;;2.85;2.75;;;;;;;;;;4205622;28;20044;-59
2023/08/24 03:56:09;;;;;;;2.45;2.33;;;;;;;;;;4200766;28;20051;-59
2023/08/24 03:58:29;;;;;;;2.80;2.08;;;;;;;;;;4204274;28;20059;-58
2023/08/24 04:00:50;;;;;;;2.92;2.72;;;;;;;;;;4201236;28;20115;-59
2023/08/24 04:03:11;;;;;;;3.85;3.10;;;;;;;;;;4200225;28;20251;-59
2023/08/24 04:05:31;;;;;;;3.25;3.15;;;;;;;;;;4203424;28;20139;-59
2023/08/24 04:07:51;;;;;;;2.70;2.55;;;;;;;;;;4204442;28;20086;-59
2023/08/24 04:10:12;;;;;;;2.17;2.15;;;;;;;;;;4201962;28;20132;-58
2023/08/24 04:12:32;;;;;;;2.30;2.30;;;;;;;;;;4203081;28;20298;-59
2023/08/24 04:14:53;;;;;;;2.85;2.75;;;;;;;;;;4203487;28;20067;-58
2023/08/24 04:17:15;;;;;;;2.83;2.73;;;;;;;;;;4204626;28;20103;-59
2023/08/24 04:19:38;;;;;;;2.67;2.58;;;;;;;;;;4203219;28;20044;-58
2023/08/24 04:21:59;;;;;;;3.95;2.63;;;;;;;;;;4202735;28;20051;-59
2023/08/24 04:24:19;;;;;;;3.42;3.20;;;;;;;;;;4189825;28;20067;-58
2023/08/24 04:26:39;;;;;;;2.95;2.83;;;;;;;;;;4201795;28;20035;-59
2023/08/24 04:28:59;;;;;;;2.97;2.78;;;;;;;;;;4203528;28;20055;-58
2023/08/24 04:31:20;;;;;;;3.83;2.95;;;;;;;;;;4204212;28;20035;-58
2023/08/24 04:33:40;;;;;;;3.15;3.05;;;;;;;;;;4201587;28;20240;-59
2023/08/24 04:36:00;;;;;;;3.95;3.58;;;;;;;;;;4200811;28;20259;-59
2023/08/24 04:38:20;;;;;;;3.72;3.15;;;;;;;;;;4203264;28;20419;-58
2023/08/24 04:40:59;;;;;;;3.47;3.38;;;;;;;;;;4202250;28;20063;-59
2023/08/24 04:43:20;;;;;;;3.30;3.20;;;;;;;;;;4203987;28;20055;-59
2023/08/24 04:45:41;;;;;;;2.95;2.83;;;;;;;;;;4202320;28;20047;-59
2023/08/24 04:48:02;;;;;;;2.60;2.40;;;;;;;;;;4200483;28;20243;-59
2023/08/24 04:50:23;;;;;;;2.45;2.25;;;;;;;;;;4202017;28;20105;-58
2023/08/24 04:52:43;;;;;;;2.47;2.38;;;;;;;;;;4204849;28;20063;-58
2023/08/24 04:55:03;;;;;;;2.97;2.88;;;;;;;;;;4201617;28;20051;-59
2023/08/24 04:57:23;;;;;;;1.58;1.55;;;;;;;;;;4203382;28;20048;-59
2023/08/24 04:59:45;;;;;;;1.92;1.83;;;;;;;;;;4203510;28;20418;-59
2023/08/24 05:02:06;;;;;;;5.70;2.85;;;;;;;;;;4202832;28;20052;-58
2023/08/24 05:04:26;;;;;;;2.67;2.58;;;;;;;;;;4203542;28;20048;-58
2023/08/24 05:06:46;;;;;;;3.35;3.15;;;;;;;;;;4203082;28;20047;-58
2023/08/24 05:09:06;;;;;;;2.92;2.72;;;;;;;;;;4203508;28;20074;-53
2023/08/24 05:11:31;;;;;;;3.60;3.20;;;;;;;;;;4203619;28;20381;-57
2023/08/24 05:13:51;;;;;;;3.88;3.78;;;;;;;;;;4202341;28;20227;-56
2023/08/24 05:16:12;;;;;;;4.53;3.92;;;;;;;;;;4199324;28;20044;-56
2023/08/24 05:18:35;;;;;;;2.80;2.70;;;;;;;;;;4201597;28;20063;-56
2023/08/24 05:20:55;;;;;;;3.63;3.03;;;;;;;;;;4187956;28;20156;-56
2023/08/24 05:23:15;;;;;;;2.72;2.55;;;;;;;;;;4205043;28;20047;-56
2023/08/24 05:25:35;;;;;;;3.55;3.45;;;;;;;;;;4204752;28;20232;-56
2023/08/24 05:27:55;;;;;;;2.78;2.67;;;;;;;;;;4204700;28;20055;-56
2023/08/24 05:30:16;;;;;;;3.53;3.47;;;;;;;;;;4204429;28;20056;-56
2023/08/24 05:32:39;;;;;;;5.22;2.88;;;;;;;;;;4204282;28;20131;-56
2023/08/24 05:34:59;;;;;;;3.95;3.72;;;;;;;;;;4204512;28;20365;-56
2023/08/24 05:37:19;;;;;;;3.90;3.80;;;;;;;;;;4202020;28;20048;-56
2023/08/24 05:39:39;;;;;;;3.70;3.40;;;;;;;;;;4200744;28;20118;-56
2023/08/24 05:42:00;;;;;;;2.95;2.83;;;;;;;;;;4201385;28;20052;-56
2023/08/24 05:44:21;;;;;;;2.88;2.72;;;;;;;;;;4203377;28;20086;-56
2023/08/24 05:46:41;;;;;;;2.30;2.30;;;;;;;;;;4205151;28;20366;-56
2023/08/24 05:49:02;;;;;;;2.53;2.33;;;;;;;;;;4202446;28;20247;-56
2023/08/24 05:51:22;;;;;;;2.53;2.33;;;;;;;;;;4204918;28;20058;-56
2023/08/24 05:53:42;;;;;;;3.70;2.80;;;;;;;;;;4189557;28;20055;-56
2023/08/24 05:56:02;;;;;;;2.97;2.80;;;;;;;;;;4204801;28;20078;-56
2023/08/24 05:58:22;;;;;;;3.78;3.60;;;;;;;;;;4205121;28;20090;-56
2023/08/24 06:00:43;;;;;;;3.42;3.28;;;;;;;;;;4205633;28;20034;-56
2023/08/24 06:03:03;;;;;;;1.73;1.67;;;;;;;;;;4203473;28;20047;-57
2023/08/24 06:05:24;;;;;;;3.08;2.17;;;;;;;;;;4200099;28;20090;-57
2023/08/24 06:07:45;;;;;;;2.75;1.50;;;;;;;;;;4203881;28;20067;-56
2023/08/24 06:10:06;;;;;;;1.50;1.27;;;;;;;;;;4200027;28;20043;-56
2023/08/24 06:12:26;;;;;;;1.60;1.45;;;;;;;;;;4202505;28;20397;-56
2023/08/24 06:14:47;;;;;;;3.03;1.33;;;;;;;;;;4201844;28;20055;-56
2023/08/24 06:17:07;;;;;;;1.50;1.40;;;;;;;;;;4202489;28;20039;-56
2023/08/24 06:19:27;;;;;;;1.00;1.00;;;;;;;;;;4204187;28;20055;-56
2023/08/24 06:21:48;;;;;;;1.30;1.30;;;;;;;;;;4204601;28;20043;-56
2023/08/24 06:24:08;;;;;;;1.35;1.10;;;;;;;;;;4205299;28;20051;-57
2023/08/24 06:26:29;;;;;;;1.40;1.30;;;;;;;;;;4203652;28;20047;-56
2023/08/24 06:28:49;;;;;;;1.83;1.00;;;;;;;;;;4199535;28;20052;-56
2023/08/24 06:31:09;;;;;;;1.95;1.10;;;;;;;;;;4203921;28;20043;-56
2023/08/24 06:33:30;;;;;;;2.85;0.90;;;;;;;;;;4200463;28;20055;-56
2023/08/24 06:35:50;;;;;;;2.60;1.23;;;;;;;;;;4197830;28;20044;-56
2023/08/24 06:38:10;;;;;;;1.00;1.00;;;;;;;;;;4203176;28;20083;-56
2023/08/24 06:40:31;;;;;;;3.17;1.00;;;;;;;;;;4202819;28;20111;-56
2023/08/24 06:42:51;;;;;;;0.93;0.93;;;;;;;;;;4201793;28;20138;-56
2023/08/24 06:45:11;;;;;;;0.90;0.90;;;;;;;;;;4204380;28;20056;-56
2023/08/24 06:47:31;;;;;;;0.90;0.90;;;;;;;;;;4203436;28;20288;-56
2023/08/24 06:49:52;;;;;;;1.70;0.90;;;;;;;;;;4201806;28;20055;-57
2023/08/24 06:52:12;;;;;;;1.00;1.00;;;;;;;;;;4203469;28;20102;-56
2023/08/24 06:54:32;;;;;;;1.02;0.98;;;;;;;;;;4205388;28;20048;-56
2023/08/24 06:56:52;;;;;;;1.05;0.95;;;;;;;;;;4199829;28;20042;-56
2023/08/24 06:59:13;;;;;;;1.48;1.35;;;;;;;;;;4199808;28;20044;-56
2023/08/24 07:01:33;;;;;;;0.85;0.85;;;;;;;;;;4206282;28;20270;-57
2023/08/24 07:03:54;;;;;;;1.00;0.90;;;;;;;;;;4204727;28;20048;-56
2023/08/24 07:06:14;;;;;;;3.65;1.00;;;;;;;;;;4203671;28;20105;-57
2023/08/24 07:08:35;;;;;;;2.67;1.00;;;;;;;;;;4205019;28;20055;-56
2023/08/24 07:10:58;;;;;;;0.90;0.90;;;;;;;;;;4203839;28;20039;-57
2023/08/24 07:13:18;;;;;;;2.53;1.00;;;;;;;;;;4202551;28;20044;-56
2023/08/24 07:15:38;;;;;;;1.08;0.98;;;;;;;;;;4202914;28;20110;-57
2023/08/24 07:17:59;;;;;;;2.33;0.90;;;;;;;;;;4203583;28;20106;-56
2023/08/24 07:20:19;;;;;;;1.10;1.10;;;;;;;;;;4200782;28;20051;-57
2023/08/24 07:22:40;;;;;;;1.15;0.90;;;;;;;;;;4202240;28;20059;-56
2023/08/24 07:25:03;;;;;;;2.60;1.00;;;;;;;;;;4203986;28;20055;-57
2023/08/24 07:27:24;;;;;;;1.00;0.80;;;;;;;;;;4203749;28;20369;-57
2023/08/24 07:29:44;;;;;;;1.75;0.80;;;;;;;;;;4202304;28;20083;-57
2023/08/24 07:32:05;;;;;;;1.90;0.90;;;;;;;;;;4201119;28;20064;-56
2023/08/24 07:34:25;;;;;;;3.47;0.80;;;;;;;;;;4203637;28;20402;-56
2023/08/24 07:36:48;;;;;;;1.27;0.90;;;;;;;;;;4201735;28;20280;-57
2023/08/24 07:39:08;;;;;;;0.88;0.80;;;;;;;;;;4205105;28;20316;-56
2023/08/24 07:41:29;;;;;;;1.85;0.73;;;;;;;;;;4203090;28;20044;-57
2023/08/24 07:43:49;;;;;;;2.63;0.70;;;;;;;;;;4204038;28;20047;-57
2023/08/24 07:46:09;;;;;;;0.60;0.60;;;;;;;;;;4201682;28;20078;-57
2023/08/24 07:48:30;;;;;;;0.60;0.60;;;;;;;;;;4201156;28;20087;-56
2023/08/24 07:50:51;;;;;;;0.70;0.70;;;;;;;;;;4202161;28;20105;-57
2023/08/24 07:53:11;;;;;;;0.75;0.68;;;;;;;;;;4201396;28;20047;-56
2023/08/24 07:55:31;;;;;;;1.50;0.70;;;;;;;;;;4202107;28;20109;-57
2023/08/24 07:57:52;;;;;;;0.70;0.70;;;;;;;;;;4202579;28;20094;-57
2023/08/24 08:00:14;;;;;;;0.68;0.68;;;;;;;;;;4200910;28;20086;-56
2023/08/24 08:02:34;;;;;;;0.60;0.60;;;;;;;;;;4202362;28;20226;-57
2023/08/24 08:04:58;;;;;;;0.70;0.70;;;;;;;;;;4203904;28;20050;-56
2023/08/24 08:07:17;;;;;;;0.60;0.60;;;;;;;;;;4203716;28;20108;-57
2023/08/24 08:09:39;;;;;;;0.52;0.50;;;;;;;;;;4201535;28;20113;-56
2023/08/24 08:11:59;;;;;;;1.65;0.80;;;;;;;;;;4202809;28;20308;-56
2023/08/24 08:14:20;;;;;;;2.53;0.68;;;;;;;;;;4200084;28;20131;-56
2023/08/24 08:16:40;;;;;;;2.13;0.60;;;;;;;;;;4202711;28;20359;-56
2023/08/24 08:19:00;;;;;;;0.60;0.60;;;;;;;;;;4203624;28;20044;-57
2023/08/24 08:21:22;;;;;;;2.55;0.80;;;;;;;;;;4202806;28;20051;-57
2023/08/24 08:23:42;;;;;;;0.90;0.60;;;;;;;;;;4202449;28;20098;-57
2023/08/24 08:26:03;;;;;;;1.65;0.57;;;;;;;;;;4203468;28;20104;-57
2023/08/24 08:28:23;;;;;;;1.95;0.73;;;;;;;;;;4203335;28;20060;-57
2023/08/24 08:30:43;;;;;;;1.77;0.60;;;;;;;;;;4202447;28;20086;-57
2023/08/24 08:33:03;;;;;;;0.60;0.60;;;;;;;;;;4204998;28;20083;-57
2023/08/24 08:35:24;;;;;;;1.95;0.60;;;;;;;;;;4204738;28;20050;-57
2023/08/24 08:37:44;;;;;;;0.85;0.60;;;;;;;;;;4202478;28;20386;-57
2023/08/24 08:40:09;;;;;;;1.55;0.50;;;;;;;;;;4203113;28;20079;-57
2023/08/24 08:42:31;;;;;;;0.50;0.50;;;;;;;;;;4202892;28;20103;-57
2023/08/24 08:44:53;;;;;;;1.42;0.60;;;;;;;;;;4202907;28;20104;-57
2023/08/24 08:47:14;;;;;;;4.95;0.80;;;;;;;;;;4202257;28;20285;-57
2023/08/24 08:49:35;;;;;;;2.63;0.60;;;;;;;;;;4202433;28;20130;-57
2023/08/24 08:51:56;;;;;;;0.90;0.70;;;;;;;;;;4203023;28;20223;-57
2023/08/24 08:54:17;;;;;;;0.93;0.65;;;;;;;;;;4204133;28;20051;-57
2023/08/24 08:56:37;;;;;;;0.65;0.65;;;;;;;;;;4204582;28;20047;-57
2023/08/24 08:59:00;;;;;;;0.63;0.50;;;;;;;;;;4204848;28;20298;-57
2023/08/24 09:01:20;;;;;;;0.50;0.50;;;;;;;;;;4200531;28;20159;-57
2023/08/24 09:03:41;;;;;;;1.17;0.50;;;;;;;;;;4204154;28;20369;-57
2023/08/24 09:06:02;;;;;;;0.83;0.60;;;;;;;;;;4201591;28;20434;-57
2023/08/24 09:08:23;;;;;;;0.93;0.52;;;;;;;;;;4201776;28;20273;-57
2023/08/24 09:10:43;;;;;;;1.15;0.60;;;;;;;;;;4202177;28;20424;-57
2023/08/24 09:13:04;;;;;;;1.15;0.50;;;;;;;;;;4202942;28;20044;-57
2023/08/24 09:15:26;;;;;;;1.58;0.50;;;;;;;;;;4201005;28;20052;-57
2023/08/24 09:17:49;;;;;;;0.50;0.50;;;;;;;;;;4199696;28;20052;-57
2023/08/24 09:20:11;;;;;;;3.00;0.50;;;;;;;;;;4204808;28;20366;-57
2023/08/24 09:22:36;;;;;;;0.60;0.57;;;;;;;;;;4203762;28;20087;-57
2023/08/24 09:25:03;;;;;;;2.20;0.50;;;;;;;;;;4203317;28;20362;-57
2023/08/24 09:27:24;;;;;;;0.55;0.55;;;;;;;;;;4200359;28;20047;-57
2023/08/24 09:29:48;;;;;;;1.55;0.60;;;;;;;;;;4195497;28;20051;-58
2023/08/24 09:32:09;;;;;;;0.60;0.60;;;;;;;;;;4200128;28;20073;-57
2023/08/24 09:34:30;;;;;;;2.25;0.50;;;;;;;;;;4206081;28;20108;-58
2023/08/24 09:36:51;;;;;;;0.60;0.60;;;;;;;;;;4200381;28;20103;-57
2023/08/24 09:39:11;;;;;;;1.58;0.70;;;;;;;;;;4203337;28;20048;-57
2023/08/24 09:41:39;;;;;;;2.60;0.65;;;;;;;;;;4203833;28;20375;-57
2023/08/24 09:44:03;;;;;;;2.38;0.60;;;;;;;;;;4204794;28;20142;-57
2023/08/24 09:46:24;;;;;;;0.70;0.70;;;;;;;;;;4200049;28;20044;-57
2023/08/24 09:48:45;;;;;;;3.83;0.70;;;;;;;;;;4203584;28;20083;-57
2023/08/24 09:51:05;;;;;;;2.33;0.80;;;;;;;;;;4205837;28;20079;-57
2023/08/24 09:53:27;;;;;;;0.80;0.80;;;;;;;;;;4199810;28;20047;-58
2023/08/24 09:55:55;;;;;;;0.80;0.80;;;;;;;;;;4205545;28;20085;-57
2023/08/24 09:58:16;;;;;;;0.70;0.70;;;;;;;;;;4206727;28;20075;-57
2023/08/24 10:00:37;;;;;;;0.85;0.70;;;;;;;;;;4206574;28;20240;-57
2023/08/24 10:02:58;;;;;;;0.70;0.70;;;;;;;;;;4206128;28;20047;-57
2023/08/24 10:05:20;;;;;;;0.80;0.80;;;;;;;;;;4204897;28;20122;-57
2023/08/24 10:07:59;;;;;;;1.33;0.70;;;;;;;;;;4203851;28;20042;-57
2023/08/24 10:10:20;;;;;;;0.90;0.90;;;;;;;;;;4205167;28;20059;-57
2023/08/24 10:12:44;;;;;;;1.57;0.70;;;;;;;;;;4203452;28;20055;-57
2023/08/24 10:15:06;;;;;;;0.70;0.70;;;;;;;;;;4206526;28;20070;-57
2023/08/24 10:17:27;;;;;;;0.80;0.80;;;;;;;;;;4203016;28;20043;-57
2023/08/24 10:19:48;;;;;;;0.80;0.80;;;;;;;;;;4205122;28;20083;-57
2023/08/24 10:22:08;;;;;;;0.70;0.70;;;;;;;;;;4205152;28;20280;-58
2023/08/24 10:24:29;;;;;;;0.63;0.63;;;;;;;;;;4201811;28;20230;-58
2023/08/24 10:26:50;;;;;;;0.77;0.77;;;;;;;;;;4203059;28;20078;-58
2023/08/24 10:29:11;;;;;;;0.70;0.70;;;;;;;;;;4206795;28;20227;-58
2023/08/24 10:31:31;;;;;;;0.77;0.70;;;;;;;;;;4199695;28;20047;-58
2023/08/24 10:33:52;;;;;;;0.70;0.70;;;;;;;;;;4203637;28;20227;-58
2023/08/24 10:36:14;;;;;;;0.70;0.70;;;;;;;;;;4204789;28;20056;-58
2023/08/24 10:38:36;;;;;;;0.70;0.70;;;;;;;;;;4202027;28;20282;-58
2023/08/24 10:41:05;;;;;;;0.70;0.70;;;;;;;;;;4206392;28;20043;-58
2023/08/24 10:43:25;;;;;;;1.67;0.70;;;;;;;;;;4201577;28;20071;-58
2023/08/24 10:45:59;;;;;;;1.10;0.60;;;;;;;;;;4206022;28;20231;-58
2023/08/24 10:48:19;;;;;;;0.73;0.70;;;;;;;;;;4199978;28;20073;-58
2023/08/24 10:50:40;;;;;;;2.25;0.70;;;;;;;;;;4200798;28;20139;-58
2023/08/24 10:53:00;;;;;;;0.70;0.70;;;;;;;;;;4206355;28;20082;-58
2023/08/24 10:55:24;;;;;;;0.70;0.70;;;;;;;;;;4199010;28;20135;-58
2023/08/24 10:57:45;;;;;;;1.73;0.70;;;;;;;;;;4201810;28;20043;-58
2023/08/24 11:00:11;;;;;;;1.35;0.68;;;;;;;;;;4204796;28;20112;-58
2023/08/24 11:02:52;;;;;;;0.60;0.60;;;;;;;;;;4204606;28;20232;-58
2023/08/24 11:05:14;;;;;;;0.60;0.60;;;;;;;;;;4204421;28;20105;-58
2023/08/24 11:07:34;;;;;;;1.85;0.70;;;;;;;;;;4203049;28;20036;-58
2023/08/24 11:09:55;;;;;;;0.75;0.60;;;;;;;;;;4199955;28;20087;-58
2023/08/24 11:12:15;;;;;;;0.85;0.68;;;;;;;;;;4198058;28;20099;-58
2023/08/24 11:14:48;;;;;;;0.70;0.70;;;;;;;;;;4202988;28;20104;-58
2023/08/24 11:17:18;;;;;;;1.48;0.60;;;;;;;;;;4204524;28;20224;-58
2023/08/24 11:19:38;;;;;;;0.70;0.70;;;;;;;;;;4199426;28;20083;-58
2023/08/24 11:21:59;;;;;;;1.58;0.70;;;;;;;;;;4202457;28;20052;-58
2023/08/24 11:24:20;;;;;;;0.70;0.70;;;;;;;;;;4205754;28;20075;-58
2023/08/24 11:26:43;;;;;;;0.60;0.60;;;;;;;;;;4205544;28;20043;-58
2023/08/24 11:29:07;;;;;;;0.60;0.60;;;;;;;;;;4205537;28;20047;-58
2023/08/24 11:31:27;;;;;;;3.83;0.70;;;;;;;;;;4205661;28;20082;-58
2023/08/24 11:33:48;;;;;;;0.70;0.70;;;;;;;;;;4204465;28;20228;-58
2023/08/24 11:36:08;;;;;;;1.77;0.70;;;;;;;;;;4203295;28;20060;-58
2023/08/24 11:38:39;;;;;;;0.70;0.70;;;;;;;;;;4204067;28;20047;-58
2023/08/24 11:40:59;;;;;;;0.70;0.70;;;;;;;;;;4202551;28;20043;-58
2023/08/24 11:43:29;;;;;;;2.38;0.60;;;;;;;;;;4201109;28;20090;-58
2023/08/24 11:45:49;;;;;;;0.70;0.70;;;;;;;;;;4204556;28;20262;-58
2023/08/24 11:48:10;;;;;;;0.73;0.65;;;;;;;;;;4203719;28;20382;-58
2023/08/24 11:50:30;;;;;;;0.95;0.60;;;;;;;;;;4201724;28;20052;-58
2023/08/24 11:52:50;;;;;;;2.85;0.60;;;;;;;;;;4204146;28;20074;-58
2023/08/24 11:55:11;;;;;;;0.60;0.60;;;;;;;;;;4203909;28;20104;-58
2023/08/24 11:57:34;;;;;;;2.43;0.70;;;;;;;;;;4205152;28;20052;-58
2023/08/24 11:59:55;;;;;;;2.20;0.70;;;;;;;;;;4203001;28;20043;-58
2023/08/24 12:02:17;;;;;;;0.70;0.70;;;;;;;;;;4199694;28;20390;-59
2023/08/24 12:04:42;;;;;;;1.65;0.60;;;;;;;;;;4202549;28;20075;-58
2023/08/24 12:07:08;;;;;;;3.95;0.60;;;;;;;;;;4203281;28;20043;-58
2023/08/24 12:09:29;;;;;;;0.70;0.70;;;;;;;;;;4203522;28;20047;-58
2023/08/24 12:11:57;;;;;;;0.68;0.60;;;;;;;;;;4201776;28;20203;-58
2023/08/24 12:14:18;;;;;;;0.68;0.68;;;;;;;;;;4202915;28;20059;-58
2023/08/24 12:16:38;;;;;;;0.60;0.60;;;;;;;;;;4204284;28;20066;-57
2023/08/24 12:19:00;;;;;;;1.10;0.80;;;;;;;;;;4203377;28;20242;-58
2023/08/24 12:21:21;;;;;;;0.60;0.60;;;;;;;;;;4204409;28;20039;-58
2023/08/24 12:23:41;;;;;;;3.40;0.63;;;;;;;;;;4203035;28;20051;-58
2023/08/24 12:26:02;;;;;;;0.70;0.70;;;;;;;;;;4197124;28;20051;-58
2023/08/24 12:28:22;;;;;;;2.38;0.70;;;;;;;;;;4202475;28;20257;-58
2023/08/24 12:30:52;;;;;;;1.48;0.70;;;;;;;;;;4205314;28;20059;-58
2023/08/24 12:33:26;;;;;;;0.55;0.55;;;;;;;;;;4203481;28;20101;-58
2023/08/24 12:35:46;;;;;;;0.60;0.60;;;;;;;;;;4204700;28;20129;-58
2023/08/24 12:38:06;;;;;;;1.33;0.60;;;;;;;;;;4204651;28;20047;-58
2023/08/24 12:40:27;;;;;;;0.87;0.67;;;;;;;;;;4204253;28;20082;-57
2023/08/24 12:42:47;;;;;;;1.63;0.98;;;;;;;;;;4204008;28;20110;-57
2023/08/24 12:45:07;;;;;;;0.63;0.60;;;;;;;;;;4205233;28;20047;-57
2023/08/24 12:47:28;;;;;;;0.70;0.70;;;;;;;;;;4203246;28;20071;-58
2023/08/24 12:49:48;;;;;;;1.48;0.70;;;;;;;;;;4203124;28;20094;-58
2023/08/24 12:52:08;;;;;;;2.03;0.60;;;;;;;;;;4203244;28;20047;-57
2023/08/24 12:54:29;;;;;;;1.30;0.60;;;;;;;;;;4207540;28;20066;-58
2023/08/24 12:56:49;;;;;;;1.13;0.80;;;;;;;;;;4207539;28;20043;-58
2023/08/24 12:59:09;;;;;;;1.23;0.65;;;;;;;;;;4210285;28;20266;-58
2023/08/24 13:01:30;;;;;;;0.70;0.70;;;;;;;;;;4207028;28;20095;-57
2023/08/24 13:03:50;;;;;;;0.70;0.70;;;;;;;;;;4209156;28;20281;-58
2023/08/24 13:06:10;;;;;;;0.60;0.60;;;;;;;;;;4208191;28;20047;-58
2023/08/24 13:08:44;;;;;;;0.60;0.60;;;;;;;;;;4205231;28;20320;-58
2023/08/24 13:11:04;;;;;;;0.65;0.65;;;;;;;;;;4208880;28;20223;-58
2023/08/24 13:13:25;;;;;;;1.05;0.90;;;;;;;;;;4210371;28;20239;-58
2023/08/24 13:15:45;;;;;;;0.70;0.70;;;;;;;;;;4208246;28;20064;-58
2023/08/24 13:18:06;;;;;;;0.70;0.70;;;;;;;;;;4207177;28;20044;-58
2023/08/24 13:20:27;;;;;;;0.60;0.60;;;;;;;;;;4205767;28;20324;-57
2023/08/24 13:22:47;;;;;;;0.93;0.60;;;;;;;;;;4207183;28;20306;-58
2023/08/24 13:25:07;;;;;;;0.88;0.60;;;;;;;;;;4208262;28;20097;-58
2023/08/24 13:27:28;;;;;;;0.60;0.60;;;;;;;;;;4204419;28;20058;-58
2023/08/24 13:29:48;;;;;;;2.50;0.60;;;;;;;;;;4207529;28;20099;-58
2023/08/24 13:32:08;;;;;;;1.17;0.52;;;;;;;;;;4205092;28;20067;-58
2023/08/24 13:34:29;;;;;;;2.05;0.60;;;;;;;;;;4208166;28;20366;-57
2023/08/24 13:36:49;;;;;;;0.60;0.60;;;;;;;;;;4209320;28;20151;-58
2023/08/24 13:39:10;;;;;;;0.60;0.60;;;;;;;;;;4207849;28;20097;-58
2023/08/24 13:41:30;;;;;;;2.58;0.63;;;;;;;;;;4209881;28;20094;-58
2023/08/24 13:43:51;;;;;;;0.60;0.60;;;;;;;;;;4202852;28;20050;-58
2023/08/24 13:46:11;;;;;;;1.48;0.60;;;;;;;;;;4202967;28;20039;-58
2023/08/24 13:48:34;;;;;;;0.60;0.60;;;;;;;;;;4209447;28;20089;-58
2023/08/24 13:50:56;;;;;;;0.60;0.60;;;;;;;;;;4200811;28;20406;-58
2023/08/24 13:53:16;;;;;;;0.68;0.63;;;;;;;;;;4206113;28;20048;-58
2023/08/24 13:55:38;;;;;;;1.95;0.70;;;;;;;;;;4207601;28;20119;-58
2023/08/24 13:57:58;;;;;;;1.15;0.98;;;;;;;;;;4206902;28;20085;-58
2023/08/24 14:00:19;;;;;;;1.95;0.70;;;;;;;;;;4207674;28;20088;-58
2023/08/24 14:02:39;;;;;;;0.70;0.70;;;;;;;;;;4207267;28;20047;-58
2023/08/24 14:04:59;;;;;;;3.83;0.80;;;;;;;;;;4205944;28;20371;-58
2023/08/24 14:07:20;;;;;;;0.60;0.60;;;;;;;;;;4199805;28;20090;-58